createdAt,value
2023-04-11T00:04:55.485Z,100746.25
2023-04-11T00:10:17.793Z,100743.97
2023-04-11T00:15:40.830Z,100739.25
2023-04-11T00:21:04.221Z,100741.91
2023-04-11T00:26:26.884Z,100725.44
2023-04-11T00:31:49.916Z,100738.88
2023-04-11T00:37:15.119Z,100729.13
2023-04-11T00:42:37.373Z,100715.25
2023-04-11T00:48:01.373Z,100740.53
2023-04-11T00:53:25.191Z,100732.19
2023-04-11T00:58:47.423Z,100737.91
2023-04-11T01:04:10.123Z,100719.78
2023-04-11T01:09:36.149Z,100740.75
2023-04-11T01:14:59.282Z,100736.69
2023-04-11T01:20:23.316Z,100735.69
2023-04-11T01:25:45.950Z,100737.31
2023-04-11T01:31:09.063Z,100712.03
2023-04-11T01:36:40.680Z,100732.81
2023-04-11T01:42:04.731Z,100723.66
2023-04-11T01:47:28.663Z,100675.16
2023-04-11T01:52:52.087Z,100685.53
2023-04-11T01:58:18.694Z,100682.88
2023-04-11T02:03:42.592Z,100686.16
2023-04-11T02:09:05.524Z,100683.69
2023-04-11T02:14:39.864Z,100676.97
2023-04-11T02:20:03.147Z,100666.19
2023-04-11T02:25:25.832Z,100687.16
2023-04-11T02:30:48.549Z,100704.28
2023-04-11T02:36:13.463Z,100670.47
2023-04-11T02:41:39.231Z,100699.41
2023-04-11T02:47:01.861Z,100688.19
2023-04-11T02:52:27.053Z,100689.22
2023-04-11T02:57:50.051Z,100688.59
2023-04-11T03:03:15.599Z,100702.47
2023-04-11T03:08:40.558Z,100692.88
2023-04-11T03:14:03.418Z,100704.91
2023-04-11T03:19:26.032Z,100705.31
2023-04-11T03:24:50.356Z,100645.59
2023-04-11T03:30:16.685Z,100687.56
2023-04-11T03:35:42.507Z,100665.94
2023-04-11T03:41:04.737Z,100706.50
2023-04-11T03:46:28.333Z,100694.84
2023-04-11T03:51:51.527Z,100704.78
2023-04-11T03:57:14.105Z,100694.97
2023-04-11T04:02:36.877Z,100683.53
2023-04-11T04:08:03.743Z,100691.75
2023-04-11T04:13:37.331Z,100704.28
2023-04-11T04:19:12.072Z,100698.38
2023-04-11T04:24:40.073Z,100676.03
2023-04-11T04:30:17.814Z,100691.75
2023-04-11T04:36:00.491Z,100715.16
2023-04-11T04:41:26.042Z,100706.97
2023-04-11T04:46:56.970Z,100707.31
2023-04-11T04:52:23.462Z,100696.78
2023-04-11T04:57:45.764Z,100686.38
2023-04-11T05:03:09.337Z,100683.16
2023-04-11T05:08:32.054Z,100674.50
2023-04-11T05:13:58.056Z,100664.25
2023-04-11T05:19:21.928Z,100678.25
2023-04-11T05:24:46.878Z,100670.69
2023-04-11T05:30:09.794Z,100672.69
2023-04-11T05:35:34.373Z,100660.69
2023-04-11T06:42:10.435Z,100679.78
2023-04-11T06:47:37.317Z,100671.69
2023-04-11T06:53:00.402Z,100645.31
2023-04-11T06:58:22.710Z,100662.00
2023-04-11T07:03:47.927Z,100649.91
2023-04-11T07:09:10.737Z,100654.72
2023-04-11T07:14:33.408Z,100657.41
2023-04-11T07:19:56.144Z,100675.19
2023-04-11T07:25:23.191Z,100646.66
2023-04-11T07:30:45.560Z,100644.78
2023-04-11T07:36:08.510Z,100636.69
2023-04-11T07:59:44.120Z,100604.41
2023-04-11T08:05:51.297Z,100640.53
2023-04-11T08:24:09.137Z,100622.81
2023-04-11T08:29:46.854Z,100613.78
2023-04-11T08:42:31.937Z,100595.03
2023-04-11T08:47:53.737Z,100592.53
2023-04-11T08:53:16.792Z,100581.81
2023-04-11T08:58:40.027Z,100570.66
2023-04-11T09:04:05.873Z,100569.47
2023-04-11T09:09:35.192Z,100556.59
2023-04-11T09:14:57.258Z,100557.53
2023-04-11T09:20:20.759Z,100553.09
2023-04-11T09:25:47.228Z,100536.03
2023-04-11T09:31:10.841Z,100532.94
2023-04-11T09:36:33.086Z,100533.78
2023-04-11T09:49:04.925Z,100541.28
2023-04-11T09:54:29.859Z,100489.03
2023-04-11T09:59:56.339Z,100503.63
2023-04-11T10:12:03.692Z,100487.56
2023-04-11T10:18:11.771Z,100532.28
2023-04-11T10:24:16.336Z,100463.44
2023-04-11T10:29:52.049Z,100508.09
2023-04-11T10:35:18.413Z,100497.31
2023-04-11T10:41:15.776Z,100460.19
2023-04-11T10:46:50.838Z,100498.78
2023-04-11T10:52:24.475Z,100489.75
2023-04-11T10:58:08.762Z,100512.69
2023-04-11T11:03:34.978Z,100472.59
2023-04-11T11:08:58.508Z,100481.09
2023-04-11T11:14:30.932Z,100460.66
2023-04-11T11:19:53.436Z,100459.59
2023-04-11T11:25:15.752Z,100450.38
2023-04-11T11:30:39.109Z,100450.59
2023-04-11T11:36:05.367Z,100439.28
2023-04-11T11:41:28.669Z,100454.59
2023-04-11T11:47:04.337Z,100448.16
2023-04-11T11:52:38.179Z,100442.53
2023-04-11T11:58:06.394Z,100406.72
2023-04-11T12:03:30.557Z,100410.34
2023-04-11T12:08:54.576Z,100402.22
2023-04-11T12:14:23.845Z,100414.84
2023-04-11T12:19:47.842Z,100407.59
2023-04-11T12:25:15.423Z,100395.94
2023-04-11T12:30:42.854Z,100366.31
2023-04-11T12:36:08.681Z,100364.72
2023-04-11T12:41:36.237Z,100377.72
2023-04-11T12:47:23.148Z,100351.50
2023-04-11T12:52:51.235Z,100345.06
2023-04-11T12:58:22.717Z,100347.75
2023-04-11T13:03:52.267Z,100345.66
2023-04-11T13:09:25.965Z,100345.00
2023-04-11T13:15:01.048Z,100324.94
2023-04-11T13:20:25.233Z,100327.06
2023-04-11T13:26:59.644Z,100320.53
2023-04-11T13:31:55.309Z,100336.50
2023-04-11T13:37:43.720Z,100316.50
2023-04-11T13:43:13.394Z,100302.72
2023-04-11T13:48:36.493Z,100318.50
2023-04-11T13:53:59.038Z,100317.19
2023-04-11T14:05:47.908Z,100351.66
2023-04-11T14:11:10.620Z,100307.72
2023-04-11T14:16:33.314Z,100303.50
2023-04-11T14:21:55.778Z,100335.53
2023-04-11T14:27:18.319Z,100320.13
2023-04-11T14:32:41.402Z,100330.59
2023-04-11T14:38:04.075Z,100312.59
2023-04-11T14:43:26.329Z,100305.13
2023-04-11T14:48:49.063Z,100311.44
2023-04-11T14:54:11.471Z,100313.63
2023-04-11T14:59:34.012Z,100318.22
2023-04-11T15:04:57.787Z,100312.81
2023-04-11T15:10:22.193Z,100303.97
2023-04-11T15:15:44.670Z,100315.38
2023-04-11T15:21:07.470Z,100316.50
2023-04-11T15:26:30.792Z,100285.22
2023-04-11T15:31:53.354Z,100296.22
2023-04-11T15:37:40.217Z,100313.25
2023-04-11T15:43:02.785Z,100295.06
2023-04-11T15:48:25.109Z,100309.38
2023-04-11T15:53:48.927Z,100313.72
2023-04-11T15:59:13.787Z,100308.72
2023-04-11T16:04:38.927Z,100315.50
2023-04-11T16:10:01.131Z,100300.81
2023-04-11T16:15:23.818Z,100317.25
2023-04-11T16:20:46.358Z,100320.59
2023-04-11T16:26:08.313Z,100308.06
2023-04-11T16:31:32.032Z,100296.28
2023-04-11T16:36:53.927Z,100318.63
2023-04-11T16:42:15.687Z,100325.31
2023-04-11T16:47:37.861Z,100305.97
2023-04-11T16:52:59.802Z,100318.53
2023-04-11T16:58:21.964Z,100308.84
2023-04-11T17:03:44.397Z,100316.31
2023-04-11T17:09:10.556Z,100319.44
2023-04-11T17:14:35.432Z,100314.84
2023-04-11T17:19:58.277Z,100321.47
2023-04-11T17:25:21.355Z,100311.09
2023-04-11T17:30:44.837Z,100304.81
2023-04-11T17:36:07.217Z,100307.38
2023-04-11T17:41:29.804Z,100310.44
2023-04-11T17:46:52.153Z,100309.53
2023-04-11T17:52:14.485Z,100301.81
2023-04-11T17:57:36.855Z,100306.88
2023-04-11T18:02:59.890Z,100328.84
2023-04-11T18:08:28.706Z,100322.31
2023-04-11T18:13:58.517Z,100313.31
2023-04-11T18:19:21.421Z,100302.91
2023-04-11T18:24:44.707Z,100315.72
2023-04-11T18:30:12.824Z,100311.28
2023-04-11T18:35:35.843Z,100318.47
2023-04-11T18:41:00.025Z,100308.94
2023-04-11T18:46:24.975Z,100304.91
2023-04-11T18:51:48.214Z,100303.44
2023-04-11T18:57:14.882Z,100308.63
2023-04-11T19:02:38.132Z,100310.75
2023-04-11T19:08:01.456Z,100310.94
2023-04-11T19:13:23.779Z,100296.75
2023-04-11T19:18:45.682Z,100309.22
2023-04-11T19:24:08.813Z,100299.81
2023-04-11T19:29:31.197Z,100286.63
2023-04-11T19:34:53.663Z,100294.31
2023-04-11T19:40:15.681Z,100284.16
2023-04-11T19:45:37.309Z,100278.66
2023-04-11T19:51:00.994Z,100302.78
2023-04-11T19:56:24.394Z,100291.94
2023-04-11T20:01:46.159Z,100288.38
2023-04-11T20:07:08.416Z,100291.44
2023-04-11T20:12:30.864Z,100294.81
2023-04-11T20:17:52.911Z,100303.53
2023-04-11T20:23:16.293Z,100301.66
2023-04-11T20:28:38.630Z,100289.28
2023-04-11T20:34:00.588Z,100311.97
2023-04-11T20:39:26.187Z,100264.09
2023-04-11T20:44:48.444Z,100274.03
2023-04-11T20:50:16.761Z,100265.97
2023-04-11T20:55:39.232Z,100262.13
2023-04-11T21:01:03.914Z,100286.63
2023-04-11T21:06:27.658Z,100267.69
2023-04-11T21:11:50.022Z,100259.13
2023-04-11T21:17:12.389Z,100272.03
2023-04-11T21:22:38.635Z,100271.69
2023-04-11T21:28:03.510Z,100262.28
2023-04-11T21:33:28.650Z,100259.44
2023-04-11T21:38:50.998Z,100270.09
2023-04-11T21:44:12.937Z,100300.16
2023-04-11T21:49:35.383Z,100290.31
2023-04-11T21:54:57.666Z,100279.03
2023-04-11T22:00:20.422Z,100299.94
2023-04-11T22:05:45.912Z,100304.81
2023-04-11T22:11:11.318Z,100301.94
2023-04-11T22:16:34.420Z,100305.34
2023-04-11T22:21:56.514Z,100303.72
2023-04-11T22:27:18.941Z,100306.59
2023-04-11T22:32:41.609Z,100296.09
2023-04-11T22:38:04.441Z,100311.13
2023-04-11T22:43:27.017Z,100306.06
2023-04-11T22:48:49.664Z,100289.16
2023-04-11T22:54:13.876Z,100271.75
2023-04-11T22:59:39.407Z,100295.50
2023-04-11T23:05:03.536Z,100278.88
2023-04-11T23:10:25.761Z,100299.31
2023-04-11T23:15:49.179Z,100295.03
2023-04-11T23:21:15.619Z,100298.66
2023-04-11T23:26:37.801Z,100293.09
2023-04-11T23:32:01.144Z,100294.75
2023-04-11T23:37:23.640Z,100294.00
2023-04-11T23:42:42.784Z,100299.69
2023-04-11T23:48:05.757Z,100287.28
2023-04-11T23:53:28.221Z,100298.09
2023-04-11T23:58:51.154Z,100303.78
